• Join FlightAware (Why Join?)
  • Login
  • US Flag 
07:40AM EDT


 

Airport Tracker/Info


-or-


 

Live Flight TrackerFlight Track Log ✈ EZY2759 ✈ 15-Apr-2013 ✈ LIMC / MXP - LEBL / BCN

Flight Track Log - Related Links

Times and Time Zones

All times are in EDT time to prevent confusion due to time zone crossing. See the EZY2759 flight status page for this flight to view local times or setup timezone preferences in your user account.

Time Position Orientation Groundspeed Altitude Reporting Facility
EDT Latitude Longitude Course Direction KTS MPH feet Rate Location/Type
12:55AM 45.0927 7.8131 230° Southwest  Level Estimated
12:56AM 45.0435 7.7308 230° Southwest  Level Estimated
12:57AM 44.9942 7.6486 230° Southwest  Level Estimated
12:58AM 44.9448 7.5666 230° Southwest  Level Estimated
12:59AM 44.8954 7.4847 230° Southwest  Level Estimated
01:00AM 44.8459 7.4029 230° Southwest  Level Estimated
01:01AM 44.7963 7.3213 229° Southwest  Level Estimated
01:02AM 44.7467 7.2399 229° Southwest  Level Estimated
01:03AM 44.6970 7.1585 229° Southwest  Level Estimated
01:04AM 44.6473 7.0773 229° Southwest  Level Estimated
01:05AM 44.5975 6.9963 229° Southwest  Level Estimated
01:06AM 44.5477 6.9153 229° Southwest  Level Estimated
01:07AM 44.4978 6.8345 229° Southwest  Level Estimated
01:08AM 44.4478 6.7539 229° Southwest  Level Estimated
01:09AM 44.3978 6.6734 229° Southwest  Level Estimated
01:10AM 44.3478 6.5930 229° Southwest  Level Estimated
01:11AM 44.2976 6.5128 229° Southwest  Level Estimated
01:12AM 44.2475 6.4327 229° Southwest  Level Estimated
01:13AM 44.1972 6.3528 229° Southwest  Level Estimated
01:14AM 44.1469 6.2730 229° Southwest  Level Estimated
01:15AM 44.0966 6.1933 229° Southwest  Level Estimated
01:16AM 44.0462 6.1137 229° Southwest  Level Estimated
01:17AM 43.9958 6.0343 229° Southwest  Level Estimated
01:18AM 43.9393 5.9457 229° Southwest  Level Estimated
01:19AM 43.8827 5.8572 228° Southwest  Level Estimated
01:20AM 43.8261 5.7688 228° Southwest  Level Estimated
01:21AM 43.7694 5.6807 228° Southwest  Level Estimated
01:22AM 43.7126 5.5927 228° Southwest  Level Estimated
01:23AM 43.6558 5.5049 228° Southwest  Level Estimated
01:24AM 43.5989 5.4172 228° Southwest  Level Estimated
01:25AM 43.5419 5.3298 228° Southwest  Level Estimated
01:26AM 43.4849 5.2424 228° Southwest  Level Estimated
01:27AM 43.4278 5.1553 228° Southwest  Level Estimated
01:28AM 43.3706 5.0683 228° Southwest  Level Estimated
01:29AM 43.3134 4.9815 228° Southwest  Level Estimated
01:30AM 43.2561 4.8948 228° Southwest  Level Estimated
01:31AM 43.1987 4.8083 228° Southwest  Level Estimated
01:32AM 43.1413 4.7220 228° Southwest  Level Estimated
01:33AM 43.0838 4.6358 228° Southwest  Level Estimated
01:34AM 43.0262 4.5498 228° Southwest  Level Estimated
01:35AM 42.9686 4.4639 227° Southwest  Level Estimated
01:36AM 42.9109 4.3782 227° Southwest  Level Estimated
01:37AM 42.8532 4.2927 227° Southwest  Level Estimated
01:38AM 42.7954 4.2073 227° Southwest  Level Estimated
01:39AM 42.7375 4.1221 227° Southwest  Level Estimated
01:40AM 42.6795 4.0371 227° Southwest  Level Estimated
01:41AM 42.6215 3.9522 227° Southwest  Level Estimated
01:42AM 42.5635 3.8674 227° Southwest  Level Estimated
01:43AM 42.5053 3.7828 227° Southwest  Level Estimated
01:44AM 42.4472 3.6984 227° Southwest  Level Estimated
01:45AM 42.3881 3.6130 227° Southwest  Level Estimated
01:46AM 42.3290 3.5278 227° Southwest  Level Estimated
01:47AM 42.2699 3.4427 227° Southwest  Level Estimated
01:48AM 42.2107 3.3578 227° Southwest  Level Estimated
01:49AM 42.1514 3.2731 227° Southwest  Level Estimated
01:50AM 42.0920 3.1885 227° Southwest  Level Estimated
01:51AM 42.0326 3.1040 227° Southwest  Level Estimated
01:52AM 41.9731 3.0198 227° Southwest  Level Estimated
01:53AM 41.9136 2.9357 226° Southwest  Level Estimated
01:54AM 41.8540 2.8517 226° Southwest  Level Estimated
01:55AM 41.7944 2.7679 226° Southwest  Level Estimated
01:56AM 41.7347 2.6843 226° Southwest  Level Estimated
01:57AM 41.6749 2.6008 226° Southwest  Level Estimated
01:58AM 41.6151 2.5174 226° Southwest  Level Estimated
01:59AM 41.5552 2.4342 226° Southwest  Level Estimated
02:00AM 41.4952 2.3512 226° Southwest  Level Estimated
02:01AM 41.4352 2.2683 226° Southwest  Level Estimated
02:02AM 41.3751 2.1856 226° Southwest  Level Estimated
02:03AM 41.3150 2.1030 226° Southwest  Level Estimated
02:04AM 41.2971 2.0785 226° Southwest  Level Estimated
02:05AM 41.2971 2.0785 124° Southeast  Level Estimated
02:06AM 41.2971 2.0785 124° Southeast  Level Estimated
02:07AM 41.2971 2.0785 124° Southeast  Level Estimated
02:08AM 41.2971 2.0785 124° Southeast  Level Estimated
02:09AM 41.2971 2.0785 124° Southeast  Level Estimated
02:10AM 41.2971 2.0785 124° Southeast  Level Estimated
02:11AM 41.2971 2.0785 124° Southeast  Level Estimated
02:12AM 41.2971 2.0785 124° Southeast  Level Estimated
02:13AM 41.2971 2.0785 124° Southeast  Level Estimated